sensor_id;sensor_type;location;lat;lon;timestamp;pressure;altitude;pressure_sealevel;temperature
72236;BMP280;60146;52.498;13.462;2023-07-13T00:00:23;100989.72;;;22.47
72236;BMP280;60146;52.498;13.462;2023-07-13T00:02:48;100990.50;;;22.47
72236;BMP280;60146;52.498;13.462;2023-07-13T00:05:13;100986.97;;;22.43
72236;BMP280;60146;52.498;13.462;2023-07-13T00:07:39;100986.34;;;22.49
72236;BMP280;60146;52.498;13.462;2023-07-13T00:10:04;100991.91;;;22.41
72236;BMP280;60146;52.498;13.462;2023-07-13T00:12:35;100995.25;;;22.35
72236;BMP280;60146;52.498;13.462;2023-07-13T00:15:05;100999.38;;;22.32
72236;BMP280;60146;52.498;13.462;2023-07-13T00:17:32;100995.81;;;22.25
72236;BMP280;60146;52.498;13.462;2023-07-13T00:19:57;101001.06;;;22.22
72236;BMP280;60146;52.498;13.462;2023-07-13T00:22:24;101001.63;;;22.12
72236;BMP280;60146;52.498;13.462;2023-07-13T00:24:51;101006.97;;;22.12
72236;BMP280;60146;52.498;13.462;2023-07-13T00:27:17;101002.72;;;22.08
72236;BMP280;60146;52.498;13.462;2023-07-13T00:29:44;100995.38;;;22.05
72236;BMP280;60146;52.498;13.462;2023-07-13T00:32:10;101005.66;;;22.03
72236;BMP280;60146;52.498;13.462;2023-07-13T00:34:36;100999.88;;;22.01
72236;BMP280;60146;52.498;13.462;2023-07-13T00:37:02;101004.03;;;21.98
72236;BMP280;60146;52.498;13.462;2023-07-13T00:39:27;101004.38;;;21.97
72236;BMP280;60146;52.498;13.462;2023-07-13T00:41:53;100990.94;;;21.93
72236;BMP280;60146;52.498;13.462;2023-07-13T00:44:19;100996.66;;;21.92
72236;BMP280;60146;52.498;13.462;2023-07-13T00:46:45;101009.28;;;21.95
72236;BMP280;60146;52.498;13.462;2023-07-13T00:49:13;101000.88;;;21.93
72236;BMP280;60146;52.498;13.462;2023-07-13T00:51:45;101001.16;;;21.88
72236;BMP280;60146;52.498;13.462;2023-07-13T00:54:17;101001.34;;;21.80
72236;BMP280;60146;52.498;13.462;2023-07-13T00:56:45;101000.47;;;21.76
72236;BMP280;60146;52.498;13.462;2023-07-13T00:59:13;101008.03;;;21.71
72236;BMP280;60146;52.498;13.462;2023-07-13T01:01:40;101003.19;;;21.61
72236;BMP280;60146;52.498;13.462;2023-07-13T01:04:05;101001.94;;;21.55
72236;BMP280;60146;52.498;13.462;2023-07-13T01:06:35;101010.63;;;21.52
72236;BMP280;60146;52.498;13.462;2023-07-13T01:09:01;100999.88;;;21.49
72236;BMP280;60146;52.498;13.462;2023-07-13T01:11:27;101014.66;;;21.46
72236;BMP280;60146;52.498;13.462;2023-07-13T01:13:53;101001.16;;;21.39
72236;BMP280;60146;52.498;13.462;2023-07-13T01:16:25;101008.94;;;21.44
72236;BMP280;60146;52.498;13.462;2023-07-13T01:18:51;101003.16;;;21.42
72236;BMP280;60146;52.498;13.462;2023-07-13T01:21:16;101001.25;;;21.43
72236;BMP280;60146;52.498;13.462;2023-07-13T01:23:43;101005.72;;;21.39
72236;BMP280;60146;52.498;13.462;2023-07-13T01:26:10;101014.88;;;21.38
72236;BMP280;60146;52.498;13.462;2023-07-13T01:28:35;101019.53;;;21.41
72236;BMP280;60146;52.498;13.462;2023-07-13T01:31:02;101021.66;;;21.36
72236;BMP280;60146;52.498;13.462;2023-07-13T01:33:28;101018.81;;;21.29
72236;BMP280;60146;52.498;13.462;2023-07-13T01:35:54;101022.19;;;21.26
72236;BMP280;60146;52.498;13.462;2023-07-13T01:38:22;101012.25;;;21.23
72236;BMP280;60146;52.498;13.462;2023-07-13T01:40:48;101011.00;;;21.20
72236;BMP280;60146;52.498;13.462;2023-07-13T01:43:14;101008.25;;;21.17
72236;BMP280;60146;52.498;13.462;2023-07-13T01:45:39;101013.25;;;21.19
72236;BMP280;60146;52.498;13.462;2023-07-13T01:48:05;101014.28;;;21.14
72236;BMP280;60146;52.498;13.462;2023-07-13T01:50:32;101008.53;;;21.12
72236;BMP280;60146;52.498;13.462;2023-07-13T01:52:58;101006.13;;;21.22
72236;BMP280;60146;52.498;13.462;2023-07-13T01:55:23;100995.34;;;21.19
72236;BMP280;60146;52.498;13.462;2023-07-13T01:57:49;100996.97;;;21.23
72236;BMP280;60146;52.498;13.462;2023-07-13T02:00:14;100996.97;;;21.23
72236;BMP280;60146;52.498;13.462;2023-07-13T02:02:40;101011.69;;;21.18
72236;BMP280;60146;52.498;13.462;2023-07-13T02:05:06;101007.47;;;21.17
72236;BMP280;60146;52.498;13.462;2023-07-13T02:07:32;101011.69;;;21.02
72236;BMP280;60146;52.498;13.462;2023-07-13T02:09:57;101008.56;;;21.00
72236;BMP280;60146;52.498;13.462;2023-07-13T02:12:23;101011.34;;;20.89
72236;BMP280;60146;52.498;13.462;2023-07-13T02:14:48;101006.28;;;20.84
72236;BMP280;60146;52.498;13.462;2023-07-13T02:17:14;101009.72;;;20.84
72236;BMP280;60146;52.498;13.462;2023-07-13T02:19:39;101012.63;;;20.80
72236;BMP280;60146;52.498;13.462;2023-07-13T02:22:06;101018.28;;;20.78
72236;BMP280;60146;52.498;13.462;2023-07-13T02:24:32;101014.09;;;20.77
72236;BMP280;60146;52.498;13.462;2023-07-13T02:26:57;100992.09;;;20.80
72236;BMP280;60146;52.498;13.462;2023-07-13T02:29:23;100990.53;;;20.79
72236;BMP280;60146;52.498;13.462;2023-07-13T02:31:48;100992.00;;;20.77
72236;BMP280;60146;52.498;13.462;2023-07-13T02:34:13;100987.25;;;20.70
72236;BMP280;60146;52.498;13.462;2023-07-13T02:36:39;100989.91;;;20.70
72236;BMP280;60146;52.498;13.462;2023-07-13T02:39:07;100987.06;;;20.63
72236;BMP280;60146;52.498;13.462;2023-07-13T02:41:32;101000.63;;;20.59
72236;BMP280;60146;52.498;13.462;2023-07-13T02:43:58;101002.97;;;20.60
72236;BMP280;60146;52.498;13.462;2023-07-13T02:46:36;101014.47;;;20.49
72236;BMP280;60146;52.498;13.462;2023-07-13T02:49:02;101005.06;;;20.40
72236;BMP280;60146;52.498;13.462;2023-07-13T02:51:28;101012.63;;;20.38
72236;BMP280;60146;52.498;13.462;2023-07-13T02:53:53;101022.50;;;20.37
72236;BMP280;60146;52.498;13.462;2023-07-13T02:56:23;101012.06;;;20.32
72236;BMP280;60146;52.498;13.462;2023-07-13T02:58:49;101018.50;;;20.31
72236;BMP280;60146;52.498;13.462;2023-07-13T03:01:15;101016.09;;;20.27
72236;BMP280;60146;52.498;13.462;2023-07-13T03:03:43;101018.50;;;20.31
72236;BMP280;60146;52.498;13.462;2023-07-13T03:06:08;101031.50;;;20.33
72236;BMP280;60146;52.498;13.462;2023-07-13T03:08:34;101036.50;;;20.34
72236;BMP280;60146;52.498;13.462;2023-07-13T03:13:26;101033.81;;;20.34
72236;BMP280;60146;52.498;13.462;2023-07-13T03:15:51;101032.53;;;20.28
72236;BMP280;60146;52.498;13.462;2023-07-13T03:18:16;101038.69;;;20.32
72236;BMP280;60146;52.498;13.462;2023-07-13T03:20:41;101040.94;;;20.30
72236;BMP280;60146;52.498;13.462;2023-07-13T03:23:07;101036.75;;;20.29
72236;BMP280;60146;52.498;13.462;2023-07-13T03:25:33;101030.50;;;20.37
72236;BMP280;60146;52.498;13.462;2023-07-13T03:27:58;101037.59;;;20.33
72236;BMP280;60146;52.498;13.462;2023-07-13T03:30:23;101048.13;;;20.42
72236;BMP280;60146;52.498;13.462;2023-07-13T03:32:49;101043.81;;;20.37
72236;BMP280;60146;52.498;13.462;2023-07-13T03:35:14;101045.84;;;20.28
72236;BMP280;60146;52.498;13.462;2023-07-13T03:37:39;101052.03;;;20.32
72236;BMP280;60146;52.498;13.462;2023-07-13T03:40:08;101048.59;;;20.32
72236;BMP280;60146;52.498;13.462;2023-07-13T03:42:34;101054.47;;;20.37
72236;BMP280;60146;52.498;13.462;2023-07-13T03:45:00;101050.41;;;20.43
72236;BMP280;60146;52.498;13.462;2023-07-13T03:47:25;101050.09;;;20.45
72236;BMP280;60146;52.498;13.462;2023-07-13T03:49:51;101054.16;;;20.54
72236;BMP280;60146;52.498;13.462;2023-07-13T03:52:16;101057.72;;;20.58
72236;BMP280;60146;52.498;13.462;2023-07-13T03:54:41;101054.31;;;20.72
72236;BMP280;60146;52.498;13.462;2023-07-13T03:57:10;101055.97;;;20.77
72236;BMP280;60146;52.498;13.462;2023-07-13T03:59:38;101053.78;;;20.82
72236;BMP280;60146;52.498;13.462;2023-07-13T04:02:04;101066.88;;;20.87
72236;BMP280;60146;52.498;13.462;2023-07-13T04:04:30;101060.94;;;20.93
72236;BMP280;60146;52.498;13.462;2023-07-13T04:06:57;101055.16;;;21.03
72236;BMP280;60146;52.498;13.462;2023-07-13T04:09:24;101070.91;;;21.23
72236;BMP280;60146;52.498;13.462;2023-07-13T04:11:49;101065.53;;;21.53
72236;BMP280;60146;52.498;13.462;2023-07-13T04:14:14;101060.97;;;21.69
72236;BMP280;60146;52.498;13.462;2023-07-13T04:16:40;101059.88;;;21.88
72236;BMP280;60146;52.498;13.462;2023-07-13T04:19:05;101062.41;;;21.81
72236;BMP280;60146;52.498;13.462;2023-07-13T04:21:31;101062.66;;;21.76
72236;BMP280;60146;52.498;13.462;2023-07-13T04:23:56;101063.75;;;21.75
72236;BMP280;60146;52.498;13.462;2023-07-13T04:26:22;101067.50;;;21.71
72236;BMP280;60146;52.498;13.462;2023-07-13T04:29:02;101062.25;;;21.74
72236;BMP280;60146;52.498;13.462;2023-07-13T04:31:40;101060.16;;;21.68
72236;BMP280;60146;52.498;13.462;2023-07-13T04:34:08;101072.47;;;21.73
72236;BMP280;60146;52.498;13.462;2023-07-13T04:36:33;101061.41;;;21.71
72236;BMP280;60146;52.498;13.462;2023-07-13T04:38:58;101072.91;;;21.74
72236;BMP280;60146;52.498;13.462;2023-07-13T04:41:23;101069.28;;;21.82
72236;BMP280;60146;52.498;13.462;2023-07-13T04:43:49;101076.75;;;21.92
72236;BMP280;60146;52.498;13.462;2023-07-13T04:46:16;101079.34;;;21.89
72236;BMP280;60146;52.498;13.462;2023-07-13T04:48:43;101086.66;;;21.92
72236;BMP280;60146;52.498;13.462;2023-07-13T04:51:09;101084.31;;;21.90
72236;BMP280;60146;52.498;13.462;2023-07-13T04:53:34;101086.47;;;22.00
72236;BMP280;60146;52.498;13.462;2023-07-13T04:56:00;101092.50;;;21.97
72236;BMP280;60146;52.498;13.462;2023-07-13T04:58:28;101102.44;;;21.81
72236;BMP280;60146;52.498;13.462;2023-07-13T05:00:59;101093.19;;;21.94
72236;BMP280;60146;52.498;13.462;2023-07-13T05:03:25;101091.50;;;22.05
72236;BMP280;60146;52.498;13.462;2023-07-13T05:06:02;101099.66;;;22.11
72236;BMP280;60146;52.498;13.462;2023-07-13T05:08:28;101106.88;;;22.08
72236;BMP280;60146;52.498;13.462;2023-07-13T05:10:53;101102.16;;;22.20
72236;BMP280;60146;52.498;13.462;2023-07-13T05:13:19;101114.88;;;22.26
72236;BMP280;60146;52.498;13.462;2023-07-13T05:15:45;101111.47;;;22.26
72236;BMP280;60146;52.498;13.462;2023-07-13T05:18:10;101105.88;;;22.34
72236;BMP280;60146;52.498;13.462;2023-07-13T05:20:36;101106.88;;;22.45
72236;BMP280;60146;52.498;13.462;2023-07-13T05:23:01;101106.53;;;22.46
72236;BMP280;60146;52.498;13.462;2023-07-13T05:25:26;101107.66;;;22.45
72236;BMP280;60146;52.498;13.462;2023-07-13T05:27:52;101119.78;;;22.58
72236;BMP280;60146;52.498;13.462;2023-07-13T05:30:17;101106.41;;;22.58
72236;BMP280;60146;52.498;13.462;2023-07-13T05:32:43;101103.94;;;22.68
72236;BMP280;60146;52.498;13.462;2023-07-13T05:35:08;101104.31;;;22.70
72236;BMP280;60146;52.498;13.462;2023-07-13T05:37:34;101107.84;;;22.74
72236;BMP280;60146;52.498;13.462;2023-07-13T05:39:59;101114.91;;;22.82
72236;BMP280;60146;52.498;13.462;2023-07-13T05:42:25;101107.97;;;22.81
72236;BMP280;60146;52.498;13.462;2023-07-13T05:44:50;101111.13;;;22.86
72236;BMP280;60146;52.498;13.462;2023-07-13T05:47:15;101110.44;;;22.89
72236;BMP280;60146;52.498;13.462;2023-07-13T05:49:41;101117.97;;;22.83
72236;BMP280;60146;52.498;13.462;2023-07-13T05:52:06;101118.03;;;22.87
72236;BMP280;60146;52.498;13.462;2023-07-13T05:54:32;101118.59;;;22.96
72236;BMP280;60146;52.498;13.462;2023-07-13T05:56:57;101119.41;;;23.00
72236;BMP280;60146;52.498;13.462;2023-07-13T05:59:23;101125.00;;;22.91
72236;BMP280;60146;52.498;13.462;2023-07-13T06:01:49;101125.97;;;23.02
72236;BMP280;60146;52.498;13.462;2023-07-13T06:04:14;101126.75;;;23.02
72236;BMP280;60146;52.498;13.462;2023-07-13T06:06:39;101122.91;;;23.03
72236;BMP280;60146;52.498;13.462;2023-07-13T06:09:05;101128.72;;;22.87
72236;BMP280;60146;52.498;13.462;2023-07-13T06:11:30;101126.66;;;22.99
72236;BMP280;60146;52.498;13.462;2023-07-13T06:13:56;101126.38;;;23.04
72236;BMP280;60146;52.498;13.462;2023-07-13T06:16:22;101117.63;;;23.07
72236;BMP280;60146;52.498;13.462;2023-07-13T06:18:47;101126.38;;;23.04
72236;BMP280;60146;52.498;13.462;2023-07-13T06:21:20;101122.16;;;23.03
72236;BMP280;60146;52.498;13.462;2023-07-13T06:23:49;101125.13;;;22.98
72236;BMP280;60146;52.498;13.462;2023-07-13T06:26:15;101117.03;;;22.95
72236;BMP280;60146;52.498;13.462;2023-07-13T06:28:40;101118.59;;;22.96
72236;BMP280;60146;52.498;13.462;2023-07-13T06:31:08;101111.47;;;23.03
72236;BMP280;60146;52.498;13.462;2023-07-13T06:33:34;101107.94;;;22.99
72236;BMP280;60146;52.498;13.462;2023-07-13T06:35:59;101109.75;;;22.92
72236;BMP280;60146;52.498;13.462;2023-07-13T06:38:25;101114.41;;;22.98
72236;BMP280;60146;52.498;13.462;2023-07-13T06:40:50;101119.50;;;23.03
72236;BMP280;60146;52.498;13.462;2023-07-13T06:43:15;101115.06;;;23.14
72236;BMP280;60146;52.498;13.462;2023-07-13T06:45:43;101116.28;;;23.16
72236;BMP280;60146;52.498;13.462;2023-07-13T06:48:11;101115.75;;;23.29
72236;BMP280;60146;52.498;13.462;2023-07-13T06:50:39;101117.34;;;23.34
72236;BMP280;60146;52.498;13.462;2023-07-13T06:53:06;101120.59;;;23.46
72236;BMP280;60146;52.498;13.462;2023-07-13T06:55:31;101116.78;;;23.47
72236;BMP280;60146;52.498;13.462;2023-07-13T06:57:57;101118.41;;;23.55
72236;BMP280;60146;52.498;13.462;2023-07-13T07:00:43;101119.56;;;23.54
72236;BMP280;60146;52.498;13.462;2023-07-13T07:03:12;101118.75;;;23.50
72236;BMP280;60146;52.498;13.462;2023-07-13T07:05:37;101121.44;;;23.50
72236;BMP280;60146;52.498;13.462;2023-07-13T07:08:03;101114.19;;;23.50
72236;BMP280;60146;52.498;13.462;2023-07-13T07:10:29;101116.13;;;23.53
72236;BMP280;60146;52.498;13.462;2023-07-13T07:12:55;101116.09;;;23.50
72236;BMP280;60146;52.498;13.462;2023-07-13T07:15:20;101115.41;;;23.56
72236;BMP280;60146;52.498;13.462;2023-07-13T07:17:46;101118.34;;;23.48
72236;BMP280;60146;52.498;13.462;2023-07-13T07:20:11;101115.75;;;23.55
72236;BMP280;60146;52.498;13.462;2023-07-13T07:22:37;101114.25;;;23.82
72236;BMP280;60146;52.498;13.462;2023-07-13T07:25:03;101116.59;;;23.84
72236;BMP280;60146;52.498;13.462;2023-07-13T07:27:28;101124.34;;;23.92
72236;BMP280;60146;52.498;13.462;2023-07-13T07:29:53;101116.91;;;24.04
72236;BMP280;60146;52.498;13.462;2023-07-13T07:32:19;101116.19;;;24.10
72236;BMP280;60146;52.498;13.462;2023-07-13T07:34:46;101122.97;;;24.30
72236;BMP280;60146;52.498;13.462;2023-07-13T07:37:13;101126.44;;;24.63
72236;BMP280;60146;52.498;13.462;2023-07-13T07:39:38;101118.28;;;24.56
72236;BMP280;60146;52.498;13.462;2023-07-13T07:42:04;101117.84;;;24.86
72236;BMP280;60146;52.498;13.462;2023-07-13T07:44:31;101122.78;;;25.23
72236;BMP280;60146;52.498;13.462;2023-07-13T07:46:56;101122.25;;;25.56
72236;BMP280;60146;52.498;13.462;2023-07-13T07:49:22;101117.06;;;25.87
72236;BMP280;60146;52.498;13.462;2023-07-13T07:51:47;101117.13;;;26.01
72236;BMP280;60146;52.498;13.462;2023-07-13T07:54:13;101121.84;;;26.27
72236;BMP280;60146;52.498;13.462;2023-07-13T07:56:40;101122.97;;;26.16
72236;BMP280;60146;52.498;13.462;2023-07-13T07:59:05;101117.69;;;26.50
72236;BMP280;60146;52.498;13.462;2023-07-13T08:01:31;101124.25;;;26.49
72236;BMP280;60146;52.498;13.462;2023-07-13T08:03:56;101116.94;;;26.50
72236;BMP280;60146;52.498;13.462;2023-07-13T08:06:21;101121.19;;;26.74
72236;BMP280;60146;52.498;13.462;2023-07-13T08:08:48;101128.91;;;26.86
72236;BMP280;60146;52.498;13.462;2023-07-13T08:11:13;101128.13;;;26.92
72236;BMP280;60146;52.498;13.462;2023-07-13T08:13:38;101125.81;;;26.84
72236;BMP280;60146;52.498;13.462;2023-07-13T08:16:05;101135.81;;;26.80
72236;BMP280;60146;52.498;13.462;2023-07-13T08:18:31;101133.13;;;26.87
72236;BMP280;60146;52.498;13.462;2023-07-13T08:20:56;101125.38;;;26.65
72236;BMP280;60146;52.498;13.462;2023-07-13T08:23:22;101127.34;;;26.58
72236;BMP280;60146;52.498;13.462;2023-07-13T08:25:53;101132.78;;;27.06
72236;BMP280;60146;52.498;13.462;2023-07-13T08:28:22;101133.16;;;27.01
72236;BMP280;60146;52.498;13.462;2023-07-13T08:30:47;101132.38;;;27.10
72236;BMP280;60146;52.498;13.462;2023-07-13T08:33:17;101144.25;;;27.50
72236;BMP280;60146;52.498;13.462;2023-07-13T08:35:46;101135.03;;;27.38
72236;BMP280;60146;52.498;13.462;2023-07-13T08:38:11;101142.69;;;27.60
72236;BMP280;60146;52.498;13.462;2023-07-13T08:40:38;101145.72;;;27.79
72236;BMP280;60146;52.498;13.462;2023-07-13T08:43:04;101148.88;;;27.70
72236;BMP280;60146;52.498;13.462;2023-07-13T08:45:52;101148.38;;;27.99
72236;BMP280;60146;52.498;13.462;2023-07-13T08:48:34;101147.16;;;28.07
72236;BMP280;60146;52.498;13.462;2023-07-13T08:53:52;101144.09;;;28.08
72236;BMP280;60146;52.498;13.462;2023-07-13T08:56:25;101143.75;;;27.96
72236;BMP280;60146;52.498;13.462;2023-07-13T08:58:58;101147.19;;;27.96
72236;BMP280;60146;52.498;13.462;2023-07-13T09:04:08;101146.56;;;27.48
72236;BMP280;60146;52.498;13.462;2023-07-13T09:06:49;101146.22;;;27.19
72236;BMP280;60146;52.498;13.462;2023-07-13T09:12:27;101147.22;;;28.63
72236;BMP280;60146;52.498;13.462;2023-07-13T09:14:57;101141.31;;;29.57
72236;BMP280;60146;52.498;13.462;2023-07-13T09:17:27;101149.06;;;30.46
72236;BMP280;60146;52.498;13.462;2023-07-13T09:20:16;101150.19;;;31.15
72236;BMP280;60146;52.498;13.462;2023-07-13T09:22:44;101150.84;;;31.41
72236;BMP280;60146;52.498;13.462;2023-07-13T09:27:39;101145.31;;;31.83
72236;BMP280;60146;52.498;13.462;2023-07-13T09:32:35;101143.28;;;32.99
72236;BMP280;60146;52.498;13.462;2023-07-13T09:35:10;101131.59;;;33.26
72236;BMP280;60146;52.498;13.462;2023-07-13T09:37:37;101138.94;;;33.41
72236;BMP280;60146;52.498;13.462;2023-07-13T09:40:03;101132.16;;;33.73
72236;BMP280;60146;52.498;13.462;2023-07-13T09:42:31;101137.13;;;34.47
72236;BMP280;60146;52.498;13.462;2023-07-13T09:45:01;101144.28;;;34.86
72236;BMP280;60146;52.498;13.462;2023-07-13T09:47:32;101141.78;;;33.10
72236;BMP280;60146;52.498;13.462;2023-07-13T09:50:14;101145.31;;;31.83
72236;BMP280;60146;52.498;13.462;2023-07-13T09:52:46;101138.88;;;31.77
72236;BMP280;60146;52.498;13.462;2023-07-13T09:57:53;101134.47;;;33.07
72236;BMP280;60146;52.498;13.462;2023-07-13T10:00:27;101140.13;;;32.07
72236;BMP280;60146;52.498;13.462;2023-07-13T10:03:04;101145.94;;;32.24
72236;BMP280;60146;52.498;13.462;2023-07-13T10:05:40;101142.72;;;32.60
72236;BMP280;60146;52.498;13.462;2023-07-13T10:08:17;101143.19;;;32.09
72236;BMP280;60146;52.498;13.462;2023-07-13T10:10:43;101146.41;;;30.17
72236;BMP280;60146;52.498;13.462;2023-07-13T10:13:29;101137.06;;;29.27
72236;BMP280;60146;52.498;13.462;2023-07-13T10:15:57;101144.84;;;28.72
72236;BMP280;60146;52.498;13.462;2023-07-13T10:18:24;101145.34;;;29.06
72236;BMP280;60146;52.498;13.462;2023-07-13T10:20:54;101144.63;;;30.03
72236;BMP280;60146;52.498;13.462;2023-07-13T10:23:26;101132.53;;;31.45
72236;BMP280;60146;52.498;13.462;2023-07-13T10:25:54;101146.09;;;32.80
72236;BMP280;60146;52.498;13.462;2023-07-13T10:28:32;101139.19;;;32.75
72236;BMP280;60146;52.498;13.462;2023-07-13T10:31:01;101132.81;;;33.77
72236;BMP280;60146;52.498;13.462;2023-07-13T10:33:31;101143.50;;;31.95
72236;BMP280;60146;52.498;13.462;2023-07-13T10:36:28;101131.78;;;31.45
72236;BMP280;60146;52.498;13.462;2023-07-13T10:38:57;101164.97;;;30.66
72236;BMP280;60146;52.498;13.462;2023-07-13T10:41:26;101156.78;;;30.18
72236;BMP280;60146;52.498;13.462;2023-07-13T10:43:54;101161.63;;;30.04
72236;BMP280;60146;52.498;13.462;2023-07-13T10:46:23;101155.41;;;30.62
72236;BMP280;60146;52.498;13.462;2023-07-13T10:48:52;101137.53;;;31.09
72236;BMP280;60146;52.498;13.462;2023-07-13T10:51:20;101154.03;;;30.47
72236;BMP280;60146;52.498;13.462;2023-07-13T10:53:47;101153.41;;;29.82
72236;BMP280;60146;52.498;13.462;2023-07-13T10:56:27;101153.06;;;30.09
72236;BMP280;60146;52.498;13.462;2023-07-13T10:59:12;101152.97;;;29.86
72236;BMP280;60146;52.498;13.462;2023-07-13T11:04:40;101137.63;;;32.47
72236;BMP280;60146;52.498;13.462;2023-07-13T11:07:28;101136.88;;;33.05
72236;BMP280;60146;52.498;13.462;2023-07-13T11:09:56;101131.38;;;34.66
72236;BMP280;60146;52.498;13.462;2023-07-13T11:17:48;101137.72;;;36.32
72236;BMP280;60146;52.498;13.462;2023-07-13T11:22:51;101145.19;;;35.84
72236;BMP280;60146;52.498;13.462;2023-07-13T11:25:31;101122.03;;;35.98
72236;BMP280;60146;52.498;13.462;2023-07-13T11:30:40;101117.16;;;35.25
72236;BMP280;60146;52.498;13.462;2023-07-13T11:35:45;101124.47;;;35.96
72236;BMP280;60146;52.498;13.462;2023-07-13T11:38:24;101108.47;;;35.85
72236;BMP280;60146;52.498;13.462;2023-07-13T11:40:54;101117.50;;;36.21
72236;BMP280;60146;52.498;13.462;2023-07-13T11:43:20;101119.34;;;35.68
72236;BMP280;60146;52.498;13.462;2023-07-13T11:45:49;101120.28;;;36.91
72236;BMP280;60146;52.498;13.462;2023-07-13T11:48:21;101133.91;;;37.66
72236;BMP280;60146;52.498;13.462;2023-07-13T11:50:52;101109.38;;;37.62
72236;BMP280;60146;52.498;13.462;2023-07-13T11:53:19;101125.44;;;38.01
72236;BMP280;60146;52.498;13.462;2023-07-13T11:55:45;101114.91;;;38.31
72236;BMP280;60146;52.498;13.462;2023-07-13T11:58:22;101107.72;;;39.32
72236;BMP280;60146;52.498;13.462;2023-07-13T12:00:49;101107.38;;;38.68
72236;BMP280;60146;52.498;13.462;2023-07-13T12:06:40;101112.53;;;36.28
72236;BMP280;60146;52.498;13.462;2023-07-13T12:09:12;101111.72;;;35.63
72236;BMP280;60146;52.498;13.462;2023-07-13T12:11:40;101111.31;;;36.81
72236;BMP280;60146;52.498;13.462;2023-07-13T12:14:10;101107.22;;;37.35
72236;BMP280;60146;52.498;13.462;2023-07-13T12:16:37;101101.03;;;37.66
72236;BMP280;60146;52.498;13.462;2023-07-13T12:19:02;101100.06;;;38.14
72236;BMP280;60146;52.498;13.462;2023-07-13T12:21:33;101100.59;;;38.92
72236;BMP280;60146;52.498;13.462;2023-07-13T12:24:00;101111.13;;;38.42
72236;BMP280;60146;52.498;13.462;2023-07-13T12:26:28;101111.31;;;36.73
72236;BMP280;60146;52.498;13.462;2023-07-13T12:28:55;101126.03;;;35.76
72236;BMP280;60146;52.498;13.462;2023-07-13T12:33:56;101105.25;;;36.25
72236;BMP280;60146;52.498;13.462;2023-07-13T12:36:22;101101.91;;;36.82
72236;BMP280;60146;52.498;13.462;2023-07-13T12:38:47;101104.06;;;37.68
72236;BMP280;60146;52.498;13.462;2023-07-13T12:41:15;101099.63;;;38.16
72236;BMP280;60146;52.498;13.462;2023-07-13T12:43:40;101110.06;;;36.21
72236;BMP280;60146;52.498;13.462;2023-07-13T12:46:18;101103.19;;;35.23
72236;BMP280;60146;52.498;13.462;2023-07-13T12:48:49;101104.22;;;37.24
72236;BMP280;60146;52.498;13.462;2023-07-13T12:51:15;101105.22;;;37.75
72236;BMP280;60146;52.498;13.462;2023-07-13T12:53:49;101107.00;;;38.75
72236;BMP280;60146;52.498;13.462;2023-07-13T12:56:23;101103.13;;;39.09
72236;BMP280;60146;52.498;13.462;2023-07-13T12:58:51;101105.03;;;38.61
72236;BMP280;60146;52.498;13.462;2023-07-13T13:01:21;101110.72;;;36.43
72236;BMP280;60146;52.498;13.462;2023-07-13T13:03:50;101107.41;;;35.83
72236;BMP280;60146;52.498;13.462;2023-07-13T13:06:23;101112.13;;;35.23
72236;BMP280;60146;52.498;13.462;2023-07-13T13:08:54;101110.78;;;35.49
72236;BMP280;60146;52.498;13.462;2023-07-13T13:11:21;101111.97;;;34.31
72236;BMP280;60146;52.498;13.462;2023-07-13T13:13:48;101114.22;;;32.80
72236;BMP280;60146;52.498;13.462;2023-07-13T13:16:18;101115.78;;;33.49
72236;BMP280;60146;52.498;13.462;2023-07-13T13:18:44;101110.03;;;33.95
72236;BMP280;60146;52.498;13.462;2023-07-13T13:21:11;101107.63;;;35.08
72236;BMP280;60146;52.498;13.462;2023-07-13T13:23:36;101108.75;;;34.78
72236;BMP280;60146;52.498;13.462;2023-07-13T13:26:02;101107.38;;;35.36
72236;BMP280;60146;52.498;13.462;2023-07-13T13:28:27;101111.22;;;35.47
72236;BMP280;60146;52.498;13.462;2023-07-13T13:30:52;101109.41;;;35.83
72236;BMP280;60146;52.498;13.462;2023-07-13T13:33:20;101125.78;;;34.49
72236;BMP280;60146;52.498;13.462;2023-07-13T13:35:46;101118.31;;;33.55
72236;BMP280;60146;52.498;13.462;2023-07-13T13:38:13;101109.81;;;33.78
72236;BMP280;60146;52.498;13.462;2023-07-13T13:40:40;101115.16;;;33.69
72236;BMP280;60146;52.498;13.462;2023-07-13T13:43:17;101106.91;;;33.21
72236;BMP280;60146;52.498;13.462;2023-07-13T13:45:44;101101.75;;;34.11
72236;BMP280;60146;52.498;13.462;2023-07-13T13:48:19;101107.16;;;32.83
72236;BMP280;60146;52.498;13.462;2023-07-13T13:50:45;101115.44;;;33.07
72236;BMP280;60146;52.498;13.462;2023-07-13T13:53:12;101110.81;;;33.96
72236;BMP280;60146;52.498;13.462;2023-07-13T13:55:39;101110.88;;;33.44
72236;BMP280;60146;52.498;13.462;2023-07-13T13:58:09;101110.66;;;32.99
72236;BMP280;60146;52.498;13.462;2023-07-13T14:00:36;101100.34;;;34.19
72236;BMP280;60146;52.498;13.462;2023-07-13T14:03:02;101103.41;;;34.08
72236;BMP280;60146;52.498;13.462;2023-07-13T14:05:27;101113.88;;;34.55
72236;BMP280;60146;52.498;13.462;2023-07-13T14:07:54;101108.84;;;34.08
72236;BMP280;60146;52.498;13.462;2023-07-13T14:10:20;101128.00;;;34.74
72236;BMP280;60146;52.498;13.462;2023-07-13T14:12:48;101134.09;;;33.60
72236;BMP280;60146;52.498;13.462;2023-07-13T14:15:22;101111.56;;;32.65
72236;BMP280;60146;52.498;13.462;2023-07-13T14:17:48;101116.81;;;31.75
72236;BMP280;60146;52.498;13.462;2023-07-13T14:20:16;101118.03;;;31.74
72236;BMP280;60146;52.498;13.462;2023-07-13T14:22:42;101124.59;;;31.73
72236;BMP280;60146;52.498;13.462;2023-07-13T14:25:14;101138.69;;;31.30
72236;BMP280;60146;52.498;13.462;2023-07-13T14:27:41;101131.97;;;31.35